createdAt,value
2018-04-25T00:00:15.879Z,17.80
2018-04-25T00:01:15.857Z,19.00
2018-04-25T00:02:15.880Z,18.20
2018-04-25T00:03:15.885Z,19.00
2018-04-25T00:04:15.921Z,18.80
2018-04-25T00:05:15.972Z,19.40
2018-04-25T00:06:15.948Z,17.50
2018-04-25T00:07:15.965Z,19.30
2018-04-25T00:08:15.984Z,18.00
2018-04-25T00:09:16.009Z,18.20
2018-04-25T00:10:16.082Z,18.50
2018-04-25T00:11:16.059Z,18.10
2018-04-25T00:12:16.085Z,18.70
2018-04-25T00:13:16.103Z,19.40
2018-04-25T00:14:16.119Z,18.80
2018-04-25T00:15:16.184Z,19.00
2018-04-25T00:16:16.164Z,19.20
2018-04-25T00:17:16.186Z,19.20
2018-04-25T00:18:16.192Z,18.80
2018-04-25T00:19:16.222Z,20.30
2018-04-25T00:20:16.218Z,20.20
2018-04-25T00:21:16.263Z,20.50
2018-04-25T00:22:16.273Z,19.10
2018-04-25T00:23:16.287Z,19.90
2018-04-25T00:24:16.372Z,18.70
2018-04-25T00:25:16.376Z,19.60
2018-04-25T00:26:16.366Z,22.60
2018-04-25T00:27:16.374Z,18.70
2018-04-25T00:28:16.367Z,19.80
2018-04-25T00:29:16.421Z,18.90
2018-04-25T00:30:16.483Z,21.90
2018-04-25T00:31:16.459Z,19.40
2018-04-25T00:32:16.444Z,18.70
2018-04-25T00:33:16.468Z,18.80
2018-04-25T00:34:16.484Z,21.30
2018-04-25T00:35:16.502Z,21.80
2018-04-25T00:36:16.531Z,20.40
2018-04-25T00:37:16.545Z,20.20
2018-04-25T00:38:16.599Z,19.70
2018-04-25T00:39:16.619Z,19.90
2018-04-25T00:40:16.609Z,20.90
2018-04-25T00:41:16.628Z,21.10
2018-04-25T00:42:16.648Z,20.80
2018-04-25T00:43:16.665Z,20.70
2018-04-25T00:44:16.695Z,20.20
2018-04-25T00:45:16.709Z,21.90
2018-04-25T00:46:16.732Z,19.40
2018-04-25T00:47:16.750Z,23.10
2018-04-25T00:48:16.768Z,20.20
2018-04-25T00:49:16.791Z,20.90
2018-04-25T00:50:16.812Z,22.20
2018-04-25T00:51:16.831Z,21.50
2018-04-25T00:52:16.855Z,22.00
2018-04-25T00:53:16.871Z,22.10
2018-04-25T00:54:16.896Z,20.80
2018-04-25T00:55:16.909Z,20.50
2018-04-25T00:56:16.976Z,21.00
2018-04-25T00:57:16.959Z,21.40
2018-04-25T00:58:16.970Z,21.00
2018-04-25T00:59:16.992Z,20.60
2018-04-25T01:00:17.017Z,19.60
2018-04-25T01:01:17.032Z,21.90
2018-04-25T01:02:17.054Z,19.10
2018-04-25T01:03:17.073Z,21.90
2018-04-25T01:04:17.094Z,21.80
2018-04-25T01:05:17.117Z,20.10
2018-04-25T01:06:17.135Z,20.40
2018-04-25T01:07:17.159Z,21.90
2018-04-25T01:08:17.176Z,20.50
2018-04-25T01:09:17.202Z,22.10
2018-04-25T01:10:17.213Z,21.00
2018-04-25T01:11:17.243Z,21.30
2018-04-25T01:12:17.255Z,20.60
2018-04-25T01:13:17.279Z,21.00
2018-04-25T01:14:17.301Z,20.00
2018-04-25T01:15:17.323Z,20.30
2018-04-25T01:16:17.336Z,19.90
2018-04-25T01:17:17.357Z,21.10
2018-04-25T01:18:17.385Z,21.80
2018-04-25T01:19:17.404Z,21.40
2018-04-25T01:20:17.421Z,19.40
2018-04-25T01:21:17.446Z,21.00
2018-04-25T01:22:17.460Z,21.80
2018-04-25T01:23:17.485Z,21.10
2018-04-25T01:24:17.502Z,21.10
2018-04-25T01:25:17.528Z,20.90
2018-04-25T01:26:17.540Z,21.30
2018-04-25T01:27:17.569Z,20.50
2018-04-25T01:28:17.581Z,20.40
2018-04-25T01:29:17.605Z,20.40
2018-04-25T01:30:17.624Z,20.90
2018-04-25T01:31:17.647Z,20.40
2018-04-25T01:32:17.664Z,21.20
2018-04-25T01:33:17.691Z,21.10
2018-04-25T01:34:17.702Z,19.90
2018-04-25T01:35:17.731Z,20.00
2018-04-25T01:36:17.743Z,22.30
2018-04-25T01:37:17.771Z,19.70
2018-04-25T01:38:17.788Z,20.50
2018-04-25T01:39:17.806Z,19.70
2018-04-25T01:40:17.830Z,22.20
2018-04-25T01:41:17.845Z,20.70
2018-04-25T01:42:17.872Z,19.60
2018-04-25T01:43:17.885Z,22.00
2018-04-25T01:44:17.914Z,21.60
2018-04-25T01:45:17.936Z,21.40
2018-04-25T01:46:17.947Z,21.00
2018-04-25T01:47:17.969Z,19.90
2018-04-25T01:48:17.992Z,19.70
2018-04-25T01:49:18.008Z,19.60
2018-04-25T01:50:18.036Z,19.30
2018-04-25T01:51:18.054Z,19.90
2018-04-25T01:52:18.072Z,19.90
2018-04-25T01:53:18.095Z,19.60
2018-04-25T01:54:18.117Z,21.10
2018-04-25T01:55:18.135Z,20.00
2018-04-25T01:56:18.153Z,19.70
2018-04-25T01:57:18.172Z,18.50
2018-04-25T01:58:18.196Z,18.00
2018-04-25T01:59:18.219Z,19.20
2018-04-25T02:00:18.231Z,18.80
2018-04-25T02:01:18.253Z,19.10
2018-04-25T02:02:18.281Z,18.20
2018-04-25T02:03:18.298Z,17.70
2018-04-25T02:04:18.315Z,17.20
2018-04-25T02:05:18.345Z,18.80
2018-04-25T02:06:18.353Z,18.60
2018-04-25T02:07:18.377Z,16.80
2018-04-25T02:08:18.399Z,17.80
2018-04-25T02:09:18.417Z,17.20
2018-04-25T02:10:18.440Z,18.90
2018-04-25T02:11:18.457Z,17.40
2018-04-25T02:12:18.475Z,16.00
2018-04-25T02:13:18.498Z,16.50
2018-04-25T02:14:18.524Z,15.20
2018-04-25T02:15:18.542Z,19.00
2018-04-25T02:16:18.559Z,17.70
2018-04-25T02:17:18.586Z,17.20
2018-04-25T02:18:18.597Z,14.50
2018-04-25T02:19:18.629Z,15.80
2018-04-25T02:20:18.638Z,15.40
2018-04-25T02:21:18.665Z,14.60
2018-04-25T02:22:18.682Z,15.90
2018-04-25T02:23:18.704Z,14.50
2018-04-25T02:24:18.723Z,14.80
2018-04-25T02:25:18.746Z,13.60
2018-04-25T02:26:18.763Z,12.50
2018-04-25T02:27:18.785Z,13.20
2018-04-25T02:28:18.804Z,14.80
2018-04-25T02:29:18.831Z,14.80
2018-04-25T02:30:18.842Z,12.80
2018-04-25T02:31:18.871Z,12.30
2018-04-25T02:32:18.884Z,11.90
2018-04-25T02:33:18.903Z,12.90
2018-04-25T02:34:18.931Z,16.20
2018-04-25T02:35:18.975Z,11.70
2018-04-25T02:36:18.973Z,12.40
2018-04-25T02:37:18.988Z,12.40
2018-04-25T02:38:19.011Z,12.50
2018-04-25T02:39:19.028Z,14.00
2018-04-25T02:40:19.052Z,10.40
2018-04-25T02:41:19.073Z,12.10
2018-04-25T02:42:19.092Z,13.80
2018-04-25T02:43:19.109Z,11.70
2018-04-25T02:44:19.135Z,10.30
2018-04-25T02:45:19.148Z,12.00
2018-04-25T02:46:19.177Z,16.20
2018-04-25T02:47:19.190Z,10.40
2018-04-25T02:48:19.219Z,12.60
2018-04-25T02:49:19.238Z,12.20
2018-04-25T02:50:19.251Z,11.60
2018-04-25T02:51:19.274Z,10.50
2018-04-25T02:52:19.298Z,12.20
2018-04-25T02:53:19.312Z,11.90
2018-04-25T02:54:19.341Z,12.60
2018-04-25T02:55:19.361Z,10.70
2018-04-25T02:56:19.375Z,10.90
2018-04-25T02:57:19.394Z,10.60
2018-04-25T02:58:19.421Z,11.60
2018-04-25T02:59:19.434Z,11.10
2018-04-25T03:00:19.457Z,11.80
2018-04-25T03:01:19.477Z,12.10
2018-04-25T03:02:19.500Z,11.10
2018-04-25T03:03:19.525Z,14.40
2018-04-25T03:04:19.536Z,12.00
2018-04-25T03:05:19.563Z,12.70
2018-04-25T03:06:19.580Z,11.20
2018-04-25T03:07:19.598Z,12.00
2018-04-25T03:08:19.629Z,14.00
2018-04-25T03:09:19.643Z,11.80
2018-04-25T03:10:19.671Z,10.40
2018-04-25T03:11:19.688Z,12.40
2018-04-25T03:12:19.700Z,12.90
2018-04-25T03:13:19.724Z,14.00
2018-04-25T03:14:19.747Z,12.10
2018-04-25T03:15:19.765Z,11.80
2018-04-25T03:16:19.783Z,11.30
2018-04-25T03:17:19.803Z,10.80
2018-04-25T03:18:19.834Z,11.80
2018-04-25T03:19:19.857Z,11.20
2018-04-25T03:20:19.868Z,13.30
2018-04-25T03:21:19.889Z,11.20
2018-04-25T03:22:19.909Z,10.20
2018-04-25T03:23:19.925Z,12.80
2018-04-25T03:24:19.955Z,10.70
2018-04-25T03:25:19.976Z,11.40
2018-04-25T03:26:19.996Z,10.70
2018-04-25T03:27:20.008Z,10.00
2018-04-25T03:28:20.043Z,11.20
2018-04-25T03:29:20.050Z,10.40
2018-04-25T03:30:20.074Z,10.20
2018-04-25T03:31:20.091Z,13.90
2018-04-25T03:32:20.117Z,11.10
2018-04-25T03:33:20.135Z,10.50
2018-04-25T03:34:20.158Z,11.70
2018-04-25T03:35:20.181Z,9.90
2018-04-25T03:36:20.193Z,10.20
2018-04-25T03:37:20.222Z,11.20
2018-04-25T03:38:20.238Z,10.00
2018-04-25T03:39:20.262Z,12.50
2018-04-25T03:40:20.280Z,10.10
2018-04-25T03:41:20.305Z,10.40
2018-04-25T03:42:20.321Z,10.30
2018-04-25T03:43:20.346Z,10.00
2018-04-25T03:44:20.358Z,10.80
2018-04-25T03:45:20.382Z,10.40
2018-04-25T03:46:20.399Z,10.50
2018-04-25T03:47:20.422Z,10.40
2018-04-25T03:48:20.444Z,11.60
2018-04-25T03:49:20.460Z,12.30
2018-04-25T03:50:20.488Z,10.10
2018-04-25T03:51:20.506Z,10.40
2018-04-25T03:52:20.528Z,9.20
2018-04-25T03:53:20.546Z,11.00
2018-04-25T03:54:20.568Z,11.60
2018-04-25T03:55:20.591Z,11.70
2018-04-25T03:56:20.604Z,12.70
2018-04-25T03:57:20.630Z,10.40
2018-04-25T03:58:20.646Z,10.30
2018-04-25T03:59:20.664Z,9.90
2018-04-25T04:00:20.693Z,11.20
2018-04-25T04:01:20.707Z,10.80
2018-04-25T04:02:20.735Z,10.30
2018-04-25T04:03:20.751Z,10.50
2018-04-25T04:04:20.779Z,9.80
2018-04-25T04:05:20.790Z,10.70
2018-04-25T04:06:20.811Z,11.00
2018-04-25T04:07:20.836Z,10.20
2018-04-25T04:08:20.850Z,10.80
2018-04-25T04:09:20.876Z,9.90
2018-04-25T04:10:20.891Z,9.50
2018-04-25T04:11:20.912Z,10.50
2018-04-25T04:12:20.939Z,11.50
2018-04-25T04:13:20.954Z,10.80
2018-04-25T04:14:20.977Z,10.70
2018-04-25T04:15:21.001Z,10.70
2018-04-25T04:16:21.013Z,11.10
2018-04-25T04:17:21.041Z,10.40
2018-04-25T04:18:21.054Z,10.10
2018-04-25T04:19:21.084Z,10.80
2018-04-25T04:20:21.100Z,11.30
2018-04-25T04:21:21.120Z,10.60
2018-04-25T04:22:21.143Z,11.00
2018-04-25T04:23:21.165Z,10.70
2018-04-25T04:24:21.179Z,11.00
2018-04-25T04:25:21.199Z,10.90
2018-04-25T04:26:21.224Z,11.00
2018-04-25T04:27:21.240Z,11.40
2018-04-25T04:28:21.266Z,11.10
2018-04-25T04:29:21.280Z,10.40
2018-04-25T04:30:21.307Z,11.00
2018-04-25T04:31:21.322Z,10.80
2018-04-25T04:32:21.349Z,10.40
2018-04-25T04:33:21.361Z,10.40
2018-04-25T04:34:21.383Z,10.50
2018-04-25T04:35:21.405Z,9.80
2018-04-25T04:36:21.425Z,9.00
2018-04-25T04:37:21.446Z,8.00
2018-04-25T04:38:21.468Z,8.20
2018-04-25T04:39:21.492Z,7.90
2018-04-25T04:40:21.587Z,9.90
2018-04-25T04:41:21.525Z,8.20
2018-04-25T04:42:21.554Z,7.00
2018-04-25T04:43:21.566Z,17.20
2018-04-25T04:44:21.594Z,7.00
2018-04-25T04:45:21.609Z,7.30
2018-04-25T04:46:21.633Z,8.50
2018-04-25T04:47:21.649Z,6.90
2018-04-25T04:48:21.672Z,6.50
2018-04-25T04:49:21.697Z,6.90
2018-04-25T04:50:21.708Z,7.00
2018-04-25T04:51:21.736Z,7.30
2018-04-25T04:52:21.749Z,7.30
2018-04-25T04:53:21.769Z,6.70
2018-04-25T04:54:21.791Z,9.10
2018-04-25T04:55:21.817Z,7.70
2018-04-25T04:56:21.834Z,6.40
2018-04-25T04:57:21.859Z,6.80
2018-04-25T04:58:21.871Z,6.20
2018-04-25T04:59:21.899Z,8.60
2018-04-25T05:00:21.912Z,7.20
2018-04-25T05:01:22.310Z,7.70
2018-04-25T05:02:21.961Z,7.20
2018-04-25T05:03:21.973Z,7.60
2018-04-25T05:04:22.001Z,7.30
2018-04-25T05:05:22.015Z,7.70
2018-04-25T05:06:22.090Z,7.90
2018-04-25T05:07:22.084Z,6.90
2018-04-25T05:08:22.105Z,7.00
2018-04-25T05:09:22.137Z,5.90
2018-04-25T05:10:22.203Z,6.80
2018-04-25T05:11:22.180Z,6.80
2018-04-25T05:12:22.194Z,6.90
2018-04-25T05:13:22.222Z,6.10
2018-04-25T05:14:22.205Z,5.50
2018-04-25T05:15:22.304Z,6.90
2018-04-25T05:16:22.252Z,5.80
2018-04-25T05:17:22.298Z,5.00
2018-04-25T05:18:22.306Z,5.70
2018-04-25T05:19:22.329Z,6.20
2018-04-25T05:20:22.409Z,5.40
2018-04-25T05:21:22.374Z,4.80
2018-04-25T05:22:22.389Z,6.40
2018-04-25T05:23:22.415Z,4.90
2018-04-25T05:24:22.414Z,5.30
2018-04-25T05:25:22.431Z,6.20
2018-04-25T05:26:22.454Z,5.70
2018-04-25T05:27:22.468Z,5.30
2018-04-25T05:28:22.489Z,5.20
2018-04-25T05:29:22.510Z,7.50
2018-04-25T05:30:22.528Z,5.90
2018-04-25T05:31:22.545Z,7.40
2018-04-25T05:32:22.574Z,4.90
2018-04-25T05:33:22.590Z,4.90
2018-04-25T05:34:22.611Z,6.10
2018-04-25T05:35:22.637Z,5.40
2018-04-25T05:36:22.647Z,5.00
2018-04-25T05:37:22.675Z,5.50
2018-04-25T05:38:22.693Z,5.10
2018-04-25T05:39:22.711Z,6.70
2018-04-25T05:40:22.728Z,4.80
2018-04-25T05:41:22.749Z,7.70
2018-04-25T05:42:22.784Z,5.10
2018-04-25T05:43:22.796Z,6.60
2018-04-25T05:44:22.814Z,6.30
2018-04-25T05:45:22.839Z,8.30
2018-04-25T05:46:22.850Z,7.00
2018-04-25T05:47:22.874Z,7.90
2018-04-25T05:48:22.897Z,7.40
2018-04-25T05:49:22.917Z,6.70
2018-04-25T05:50:22.940Z,7.00
2018-04-25T05:51:22.958Z,6.00
2018-04-25T05:52:22.975Z,9.10
2018-04-25T05:53:22.993Z,5.10
2018-04-25T05:54:23.020Z,6.10
2018-04-25T05:55:23.035Z,4.20
2018-04-25T05:56:23.057Z,4.30
2018-04-25T05:57:23.077Z,4.50
2018-04-25T05:58:23.099Z,3.90
2018-04-25T05:59:23.122Z,4.50
2018-04-25T06:00:23.133Z,5.50
2018-04-25T06:01:23.160Z,4.40
2018-04-25T06:02:23.177Z,4.40
2018-04-25T06:03:23.200Z,4.50
2018-04-25T06:04:23.216Z,4.10
2018-04-25T06:05:23.243Z,4.10
2018-04-25T06:06:23.253Z,3.90
2018-04-25T06:07:23.283Z,4.00
2018-04-25T06:08:23.294Z,3.40
2018-04-25T06:09:23.323Z,3.60
2018-04-25T06:10:23.333Z,2.60
2018-04-25T06:11:23.362Z,3.40
2018-04-25T06:12:23.464Z,3.10
2018-04-25T06:13:23.486Z,4.30
2018-04-25T06:14:23.418Z,2.80
2018-04-25T06:15:23.443Z,3.40
2018-04-25T06:16:23.458Z,3.50
2018-04-25T06:17:23.476Z,3.90
2018-04-25T06:18:23.500Z,4.00
2018-04-25T06:19:23.516Z,3.80
2018-04-25T06:20:23.619Z,3.10
2018-04-25T06:21:23.555Z,3.50
2018-04-25T06:22:23.582Z,4.10
2018-04-25T06:23:23.594Z,3.80
2018-04-25T06:24:23.622Z,3.60
2018-04-25T06:25:23.634Z,4.30
2018-04-25T06:26:23.661Z,4.70
2018-04-25T06:27:23.673Z,4.20
2018-04-25T06:28:23.702Z,4.50
2018-04-25T06:29:23.717Z,4.40
2018-04-25T06:30:23.739Z,4.50
2018-04-25T06:31:23.761Z,4.40
2018-04-25T06:32:23.781Z,4.00
2018-04-25T06:33:23.799Z,4.10
2018-04-25T06:34:23.815Z,4.60
2018-04-25T06:35:23.924Z,3.80
2018-04-25T06:36:23.865Z,5.60
2018-04-25T06:37:23.876Z,4.10
2018-04-25T06:38:23.898Z,3.70
2018-04-25T06:39:23.980Z,8.50
2018-04-25T06:40:23.933Z,5.10
2018-04-25T06:41:23.962Z,4.80
2018-04-25T06:42:23.978Z,4.90
2018-04-25T06:43:23.995Z,5.70
2018-04-25T06:44:24.013Z,4.00
2018-04-25T06:45:24.035Z,4.60
2018-04-25T06:46:24.062Z,3.80
2018-04-25T06:47:24.079Z,5.30
2018-04-25T06:48:24.097Z,4.50
2018-04-25T06:49:24.118Z,4.10
2018-04-25T06:50:24.141Z,4.20
2018-04-25T06:51:24.165Z,3.80
2018-04-25T06:52:24.176Z,4.00
2018-04-25T06:53:24.202Z,4.70
2018-04-25T06:54:24.217Z,4.80
2018-04-25T06:55:24.240Z,5.60
2018-04-25T06:56:24.268Z,4.40
2018-04-25T06:57:24.286Z,3.80
2018-04-25T06:58:24.309Z,4.90
2018-04-25T06:59:24.320Z,4.80
2018-04-25T07:00:24.346Z,4.30
2018-04-25T07:01:24.367Z,4.80
2018-04-25T07:02:24.390Z,3.90
2018-04-25T07:03:24.414Z,4.50
2018-04-25T07:04:24.426Z,4.60
2018-04-25T07:05:24.447Z,3.40
2018-04-25T07:06:24.475Z,5.00
2018-04-25T07:07:24.583Z,5.60
2018-04-25T07:08:24.515Z,4.20
2018-04-25T07:09:24.535Z,4.70
2018-04-25T07:10:24.556Z,4.20
2018-04-25T07:11:24.582Z,3.60
2018-04-25T07:12:24.594Z,3.80
2018-04-25T07:13:24.701Z,4.20
2018-04-25T07:14:24.639Z,5.80
2018-04-25T07:15:24.667Z,4.20
2018-04-25T07:16:24.680Z,3.30
2018-04-25T07:17:24.707Z,4.40
2018-04-25T07:18:24.726Z,3.50
2018-04-25T07:19:24.751Z,3.90
2018-04-25T07:20:24.774Z,4.30
2018-04-25T07:21:24.799Z,3.00
2018-04-25T07:22:24.876Z,5.30
2018-04-25T07:23:24.842Z,3.60
2018-04-25T07:24:24.856Z,4.80
2018-04-25T07:25:24.884Z,3.90
2018-04-25T07:26:24.904Z,3.80
2018-04-25T07:27:24.928Z,5.90
2018-04-25T07:28:24.948Z,4.10
2018-04-25T07:29:24.979Z,3.80
2018-04-25T07:30:24.998Z,4.30
2018-04-25T07:31:25.012Z,3.90
2018-04-25T07:32:25.042Z,6.40
2018-04-25T07:33:25.058Z,5.30
2018-04-25T07:34:25.082Z,4.30
2018-04-25T07:35:25.171Z,3.30
2018-04-25T07:36:25.127Z,4.50
2018-04-25T07:37:25.152Z,4.00
2018-04-25T07:38:25.168Z,5.40
2018-04-25T07:39:25.192Z,3.70
2018-04-25T07:40:25.211Z,5.50
2018-04-25T07:41:25.234Z,3.80
2018-04-25T07:42:25.259Z,5.00
2018-04-25T07:43:25.278Z,5.20
2018-04-25T07:44:25.304Z,4.40
2018-04-25T07:45:25.328Z,5.80
2018-04-25T07:46:25.347Z,5.90
2018-04-25T07:47:25.370Z,7.70
2018-04-25T07:48:25.390Z,7.90
2018-04-25T07:49:25.438Z,5.40
2018-04-25T07:50:25.437Z,4.70
2018-04-25T07:51:25.456Z,4.40
2018-04-25T07:52:25.475Z,5.40
2018-04-25T07:53:25.496Z,4.30
2018-04-25T07:54:25.521Z,4.70
2018-04-25T07:55:25.548Z,4.60
2018-04-25T07:56:25.559Z,4.80
2018-04-25T07:57:25.585Z,5.50
2018-04-25T07:58:25.604Z,5.70
2018-04-25T07:59:25.625Z,7.30
2018-04-25T08:00:25.652Z,5.60
2018-04-25T08:01:25.672Z,6.00
2018-04-25T08:02:25.689Z,5.50
2018-04-25T08:03:25.714Z,6.60
2018-04-25T08:04:25.742Z,5.80
2018-04-25T08:05:25.759Z,5.10
2018-04-25T08:06:25.777Z,5.50
2018-04-25T08:07:25.801Z,5.50
2018-04-25T08:08:25.816Z,6.90
2018-04-25T08:09:25.836Z,5.20
2018-04-25T08:10:25.863Z,6.10
2018-04-25T08:11:25.878Z,5.10
2018-04-25T08:12:25.984Z,8.00
2018-04-25T08:13:25.924Z,6.50
2018-04-25T08:14:25.946Z,6.10
2018-04-25T08:15:25.967Z,5.10
2018-04-25T08:16:25.989Z,5.10
2018-04-25T08:17:26.015Z,5.80
2018-04-25T08:18:26.026Z,5.00
2018-04-25T08:19:26.050Z,5.80
2018-04-25T08:20:26.068Z,6.10
2018-04-25T08:21:26.091Z,5.00
2018-04-25T08:22:26.114Z,4.10
2018-04-25T08:23:26.139Z,5.80
2018-04-25T08:24:26.158Z,5.50
2018-04-25T08:25:26.182Z,5.00
2018-04-25T08:26:26.203Z,4.70
2018-04-25T08:27:26.222Z,4.20
2018-04-25T08:28:26.247Z,4.10
2018-04-25T08:29:26.263Z,4.80
2018-04-25T08:30:26.293Z,6.40
2018-04-25T08:31:26.306Z,5.20
2018-04-25T08:32:26.337Z,6.10
2018-04-25T08:33:26.405Z,4.70
2018-04-25T08:34:26.375Z,4.80
2018-04-25T08:35:26.396Z,4.10
2018-04-25T08:36:26.421Z,5.20
2018-04-25T08:37:26.442Z,5.30
2018-04-25T08:38:26.461Z,6.60
2018-04-25T08:39:26.492Z,4.70
2018-04-25T08:40:26.507Z,4.90
2018-04-25T08:41:26.532Z,5.00
2018-04-25T08:42:26.559Z,4.30
2018-04-25T08:43:26.586Z,7.10
2018-04-25T08:44:26.603Z,8.00
2018-04-25T08:45:26.628Z,6.90
2018-04-25T08:46:26.641Z,10.30
2018-04-25T08:47:26.671Z,6.60
2018-04-25T08:48:26.695Z,6.50
2018-04-25T08:49:26.721Z,7.20
2018-04-25T08:50:26.740Z,4.70
2018-04-25T08:51:26.769Z,5.00
2018-04-25T08:52:26.783Z,4.30
2018-04-25T08:53:26.807Z,3.20
2018-04-25T08:54:26.840Z,5.80
2018-04-25T08:55:26.855Z,2.90
2018-04-25T08:56:26.883Z,5.00
2018-04-25T08:57:26.913Z,5.40
2018-04-25T08:58:26.929Z,4.70
2018-04-25T08:59:26.957Z,4.10
2018-04-25T09:00:26.983Z,4.90
2018-04-25T09:01:27.003Z,3.60
2018-04-25T09:02:27.037Z,2.90
2018-04-25T09:03:27.060Z,3.40
2018-04-25T09:04:27.082Z,4.60
2018-04-25T09:05:27.106Z,3.60
2018-04-25T09:06:27.131Z,2.70
2018-04-25T09:07:27.161Z,3.40
2018-04-25T09:08:27.187Z,3.50
2018-04-25T09:09:27.217Z,3.10
2018-04-25T09:10:27.230Z,3.00
2018-04-25T09:11:27.262Z,2.50
2018-04-25T09:12:27.282Z,2.80
2018-04-25T09:13:27.305Z,4.10
2018-04-25T09:14:27.338Z,3.20
2018-04-25T09:15:27.446Z,2.40
2018-04-25T09:16:27.392Z,5.70
2018-04-25T09:17:27.413Z,2.90
2018-04-25T09:18:27.439Z,3.20
2018-04-25T09:19:27.463Z,2.50
2018-04-25T09:20:27.491Z,4.00
2018-04-25T09:21:27.520Z,3.10
2018-04-25T09:22:27.536Z,4.30
2018-04-25T09:23:27.566Z,2.70
2018-04-25T09:24:27.590Z,2.90
2018-04-25T09:25:27.618Z,3.90
2018-04-25T09:26:27.644Z,3.00
2018-04-25T09:27:27.679Z,2.80
2018-04-25T09:28:27.695Z,4.30
2018-04-25T09:29:27.728Z,4.10
2018-04-25T09:30:27.744Z,3.70
2018-04-25T09:31:27.782Z,4.40
2018-04-25T09:32:27.795Z,5.50
2018-04-25T09:33:27.828Z,4.40
2018-04-25T09:34:27.954Z,3.20
2018-04-25T09:35:27.877Z,5.50
2018-04-25T09:36:27.903Z,9.60
2018-04-25T09:37:27.929Z,3.40
2018-04-25T09:38:27.950Z,6.10
2018-04-25T09:39:27.973Z,4.70
2018-04-25T09:40:28.008Z,3.30
2018-04-25T09:41:28.027Z,6.40
2018-04-25T09:42:28.052Z,3.20
2018-04-25T09:43:28.083Z,2.40
2018-04-25T09:44:28.105Z,4.20
2018-04-25T09:45:28.126Z,2.70
2018-04-25T09:46:28.159Z,6.30
2018-04-25T09:47:28.178Z,3.20
2018-04-25T09:48:28.209Z,4.00
2018-04-25T09:49:28.230Z,8.70
2018-04-25T09:50:28.255Z,5.50
2018-04-25T09:51:28.282Z,5.20
2018-04-25T09:52:28.308Z,2.60
2018-04-25T09:53:28.338Z,3.00
2018-04-25T09:54:28.356Z,2.90
2018-04-25T09:55:28.381Z,5.60
2018-04-25T09:56:28.404Z,3.50
2018-04-25T09:57:28.616Z,2.80
2018-04-25T09:58:28.451Z,3.30
2018-04-25T09:59:28.473Z,2.30
2018-04-25T10:00:28.495Z,2.20
2018-04-25T10:01:28.517Z,3.40
2018-04-25T10:02:28.543Z,3.10
2018-04-25T10:03:28.569Z,3.10
2018-04-25T10:04:28.584Z,3.20
2018-04-25T10:05:28.607Z,4.00
2018-04-25T10:06:28.638Z,3.00
2018-04-25T10:07:28.657Z,3.80
2018-04-25T10:08:28.678Z,5.10
2018-04-25T10:09:28.712Z,6.60
2018-04-25T10:10:28.727Z,1.60
2018-04-25T10:11:28.742Z,3.60
2018-04-25T10:12:28.767Z,2.50
2018-04-25T10:13:28.790Z,2.80
2018-04-25T10:14:28.813Z,2.90
2018-04-25T10:15:28.833Z,4.00
2018-04-25T10:16:28.859Z,2.80
2018-04-25T10:17:28.874Z,4.10
2018-04-25T10:18:28.903Z,3.90
2018-04-25T10:19:28.922Z,2.10
2018-04-25T10:20:28.948Z,4.00
2018-04-25T10:21:28.964Z,2.30
2018-04-25T10:22:28.992Z,4.60
2018-04-25T10:23:29.009Z,4.60
2018-04-25T10:24:29.031Z,4.40
2018-04-25T10:25:29.057Z,3.00
2018-04-25T10:26:29.073Z,5.70
2018-04-25T10:27:29.095Z,3.40
2018-04-25T10:28:29.120Z,3.20
2018-04-25T10:29:29.133Z,2.90
2018-04-25T10:30:29.162Z,4.10
2018-04-25T10:31:29.182Z,3.00
2018-04-25T10:32:29.205Z,4.00
2018-04-25T10:33:29.229Z,3.90
2018-04-25T10:34:29.239Z,2.80
2018-04-25T10:35:29.270Z,2.40
2018-04-25T10:36:29.282Z,2.50
2018-04-25T10:37:29.309Z,3.30
2018-04-25T10:38:29.327Z,2.60
2018-04-25T10:39:29.356Z,3.90
2018-04-25T10:40:29.441Z,5.10
2018-04-25T10:41:29.389Z,4.20
2018-04-25T10:42:29.412Z,3.40
2018-04-25T10:43:29.435Z,4.20
2018-04-25T10:44:29.454Z,5.30
2018-04-25T10:45:29.480Z,3.70
2018-04-25T10:46:29.494Z,6.50
2018-04-25T10:47:29.517Z,5.90
2018-04-25T10:48:29.540Z,7.00
2018-04-25T10:49:29.557Z,2.60
2018-04-25T10:50:29.586Z,5.50
2018-04-25T10:51:29.598Z,3.30
2018-04-25T10:52:29.628Z,2.60
2018-04-25T10:53:29.645Z,4.30
2018-04-25T10:54:29.667Z,4.80
2018-04-25T10:55:29.859Z,4.00
2018-04-25T10:56:29.713Z,6.10
2018-04-25T10:57:29.734Z,3.90
2018-04-25T10:58:29.751Z,5.20
2018-04-25T10:59:29.776Z,2.50
2018-04-25T11:00:29.794Z,2.70
2018-04-25T11:01:29.813Z,2.30
2018-04-25T11:02:29.863Z,3.50
2018-04-25T11:03:29.857Z,3.00
2018-04-25T11:04:29.961Z,3.90
2018-04-25T11:05:29.902Z,4.30
2018-04-25T11:06:29.922Z,2.60
2018-04-25T11:07:30.002Z,4.40
2018-04-25T11:08:29.960Z,3.70
2018-04-25T11:09:29.984Z,5.80
2018-04-25T11:10:30.011Z,2.40
2018-04-25T11:11:30.033Z,3.70
2018-04-25T11:12:30.049Z,4.70
2018-04-25T11:13:30.067Z,3.70
2018-04-25T11:14:30.091Z,5.30
2018-04-25T11:15:30.111Z,5.20
2018-04-25T11:16:30.140Z,3.40
2018-04-25T11:17:30.165Z,3.80
2018-04-25T11:18:30.178Z,3.70
2018-04-25T11:19:30.207Z,3.70
2018-04-25T11:20:30.226Z,3.50
2018-04-25T11:21:30.240Z,3.30
2018-04-25T11:22:30.270Z,4.00
2018-04-25T11:23:30.285Z,4.70
2018-04-25T11:24:30.314Z,6.40
2018-04-25T11:25:30.331Z,3.30
2018-04-25T11:26:30.409Z,5.60
2018-04-25T11:27:30.375Z,4.80
2018-04-25T11:28:30.399Z,4.00
2018-04-25T11:29:30.423Z,3.80
2018-04-25T11:30:30.442Z,5.10
2018-04-25T11:31:30.468Z,5.20
2018-04-25T11:32:30.479Z,4.20
2018-04-25T11:33:30.501Z,5.80
2018-04-25T11:34:30.531Z,4.10
2018-04-25T11:35:30.549Z,5.30
2018-04-25T11:36:30.569Z,4.20
2018-04-25T11:37:30.596Z,3.40
2018-04-25T11:38:30.610Z,5.30
2018-04-25T11:39:30.640Z,3.60
2018-04-25T11:40:30.653Z,4.10
2018-04-25T11:41:30.681Z,4.20
2018-04-25T11:42:30.697Z,3.70
2018-04-25T11:43:30.723Z,3.80
2018-04-25T11:44:30.742Z,4.90
2018-04-25T11:45:30.767Z,4.20
2018-04-25T11:46:30.793Z,3.00
2018-04-25T11:47:30.802Z,4.80
2018-04-25T11:48:30.834Z,3.10
2018-04-25T11:49:30.851Z,3.90
2018-04-25T11:50:30.875Z,3.60
2018-04-25T11:51:30.896Z,4.20
2018-04-25T11:52:30.915Z,4.30
2018-04-25T11:53:30.936Z,5.00
2018-04-25T11:54:30.955Z,5.30
2018-04-25T11:55:30.979Z,4.20
2018-04-25T11:56:31.000Z,3.00
2018-04-25T11:57:31.025Z,4.20
2018-04-25T11:58:31.038Z,4.70
2018-04-25T11:59:31.067Z,3.40
2018-04-25T12:00:31.081Z,3.50
2018-04-25T12:01:31.109Z,4.70
2018-04-25T12:02:31.121Z,4.60
2018-04-25T12:03:31.150Z,5.30
2018-04-25T12:04:31.165Z,3.40
2018-04-25T12:05:31.191Z,5.10
2018-04-25T12:06:31.208Z,7.10
2018-04-25T12:07:31.232Z,4.20
2018-04-25T12:08:31.252Z,4.90
2018-04-25T12:09:31.278Z,4.10
2018-04-25T12:10:31.340Z,5.90
2018-04-25T12:11:31.316Z,4.50
2018-04-25T12:12:31.337Z,3.90
2018-04-25T12:13:31.360Z,5.50
2018-04-25T12:14:31.395Z,3.60
2018-04-25T12:15:31.395Z,5.10
2018-04-25T12:16:31.427Z,5.30
2018-04-25T12:17:31.447Z,3.60
2018-04-25T12:18:31.460Z,3.80
2018-04-25T12:19:31.481Z,6.70
2018-04-25T12:20:31.510Z,3.70
2018-04-25T12:21:31.539Z,5.90
2018-04-25T12:22:31.544Z,3.90
2018-04-25T12:23:31.567Z,4.40
2018-04-25T12:24:31.590Z,6.00
2018-04-25T12:25:31.611Z,3.20
2018-04-25T12:26:31.630Z,4.30
2018-04-25T12:27:31.656Z,4.40
2018-04-25T12:28:31.676Z,5.00
2018-04-25T12:29:31.716Z,6.60
2018-04-25T12:30:31.709Z,3.50
2018-04-25T12:31:31.733Z,4.50
2018-04-25T12:32:31.761Z,4.70
2018-04-25T12:33:31.776Z,5.70
2018-04-25T12:34:31.795Z,4.70
2018-04-25T12:35:31.817Z,17.30
2018-04-25T12:36:31.841Z,8.80
2018-04-25T12:37:31.862Z,5.90
2018-04-25T12:38:31.880Z,9.10
2018-04-25T12:39:31.899Z,7.90
2018-04-25T12:40:31.951Z,8.00
2018-04-25T12:41:32.002Z,6.40
2018-04-25T12:42:31.961Z,4.50
2018-04-25T12:43:31.991Z,5.60
2018-04-25T12:44:32.007Z,6.10
2018-04-25T12:45:32.032Z,5.90
2018-04-25T12:46:32.050Z,5.90
2018-04-25T12:47:32.082Z,5.00
2018-04-25T12:48:32.090Z,6.90
2018-04-25T12:49:32.107Z,5.80
2018-04-25T12:50:32.131Z,6.10
2018-04-25T12:51:32.155Z,4.30
2018-04-25T12:52:32.173Z,4.70
2018-04-25T12:53:32.199Z,5.70
2018-04-25T12:54:32.211Z,5.60
2018-04-25T12:55:32.242Z,3.50
2018-04-25T12:56:32.257Z,4.60
2018-04-25T12:57:32.281Z,4.50
2018-04-25T12:58:32.300Z,6.00
2018-04-25T12:59:32.323Z,6.90
2018-04-25T13:00:32.345Z,5.90
2018-04-25T13:01:32.377Z,4.80
2018-04-25T13:02:32.380Z,6.20
2018-04-25T13:03:32.416Z,4.70
2018-04-25T13:04:32.429Z,4.70
2018-04-25T13:05:32.455Z,6.90
2018-04-25T13:06:32.463Z,5.30
2018-04-25T13:07:32.491Z,5.00
2018-04-25T13:08:32.513Z,5.40
2018-04-25T13:09:32.534Z,5.90